Time;durP1;ratioP1;P1;durP2;ratioP2;P2;SDS_P1;SDS_P2;PMS_P1;PMS_P2;Temp;Humidity;BMP_temperature;BMP_pressure;BME280_temperature;BME280_humidity;BME280_pressure;Samples;Min_cycle;Max_cycle;Signal;HPM_P1;HPM_P2
2024/04/13 00:01:37;;;;;;;;;;;;;;;14.23;81.53;102689.20;106889;1270;22497;-50
2024/04/13 00:04:05;;;;;;;;;;;;;;;14.22;81.64;102681.81;106843;1269;22503;-50
2024/04/13 00:06:32;;;;;;;;;;;;;;;14.19;81.62;102679.95;107110;1276;22496;-49
2024/04/13 00:08:59;;;;;;;;;;;;;;;14.17;81.60;102680.56;106976;1276;24171;-48
2024/04/13 00:11:26;;;;;;;;;;;;;;;14.13;81.61;102679.30;106843;1267;25849;-52
2024/04/13 00:13:53;;;;;;;;;;;;;;;14.09;81.69;102681.95;106917;1276;22625;-50
2024/04/13 00:16:22;;;;;;;;;;;;;;;14.08;81.86;102679.55;106855;1269;22520;-51
2024/04/13 00:18:49;;;;;;;;;;;;;;;14.06;81.92;102685.84;106958;1270;22447;-49
2024/04/13 00:21:16;;;;;;;;;;;;;;;14.04;82.06;102686.09;107119;1269;22509;-50
2024/04/13 00:23:43;;;;;;;;;;;;;;;14.04;82.27;102681.66;106994;1276;25329;-52
2024/04/13 00:26:09;;;;;;;;;;;;;;;14.04;82.29;102681.84;106877;1273;25415;-48
2024/04/13 00:28:37;;;;;;;;;;;;;;;14.03;82.21;102682.08;106850;1276;23880;-49
2024/04/13 00:31:04;;;;;;;;;;;;;;;14.02;82.35;102684.59;107049;1276;24365;-50
2024/04/13 00:33:33;;;;;;;;;;;;;;;13.99;82.53;102679.73;107113;1270;25346;-51
2024/04/13 00:36:00;;;;;;;;;;;;;;;13.95;82.62;102667.80;106956;1276;22442;-49
2024/04/13 00:38:27;;;;;;;;;;;;;;;13.92;82.60;102659.39;106939;1276;24287;-50
2024/04/13 00:40:54;;;;;;;;;;;;;;;13.89;82.79;102660.23;106891;1272;25404;-50
2024/04/13 00:43:21;;;;;;;;;;;;;;;13.87;82.93;102661.77;106936;1269;22711;-48
2024/04/13 00:45:48;;;;;;;;;;;;;;;13.86;82.96;102654.68;106842;1270;22702;-51
2024/04/13 00:48:17;;;;;;;;;;;;;;;13.86;83.09;102659.30;106804;1276;24021;-51
2024/04/13 00:50:45;;;;;;;;;;;;;;;13.87;83.17;102661.90;107240;1276;22551;-49
2024/04/13 00:53:12;;;;;;;;;;;;;;;13.89;83.30;102654.71;107051;1272;25230;-48
2024/04/13 00:55:45;;;;;;;;;;;;;;;13.90;83.31;102648.29;106928;1276;22545;-51
2024/04/13 00:58:11;;;;;;;;;;;;;;;13.90;83.27;102645.45;106882;1276;22469;-48
2024/04/13 01:00:39;;;;;;;;;;;;;;;13.88;83.21;102636.48;106864;1276;25211;-51
2024/04/13 01:03:06;;;;;;;;;;;;;;;13.86;83.20;102636.19;106964;1270;22455;-51
2024/04/13 01:05:34;;;;;;;;;;;;;;;13.84;83.32;102638.58;107352;1271;22831;-51
2024/04/13 01:08:02;;;;;;;;;;;;;;;13.83;83.29;102635.08;107082;1273;24182;-51
2024/04/13 01:10:29;;;;;;;;;;;;;;;13.82;83.37;102629.98;106872;1276;22456;-49
2024/04/13 01:12:56;;;;;;;;;;;;;;;13.82;83.35;102622.67;106884;1276;23494;-51
2024/04/13 01:15:27;;;;;;;;;;;;;;;13.81;83.44;102627.50;106866;1276;22552;-53
2024/04/13 01:17:55;;;;;;;;;;;;;;;13.83;83.57;102623.71;106937;1275;25357;-49
2024/04/13 01:20:22;;;;;;;;;;;;;;;13.83;83.49;102619.23;106976;1273;22556;-53
2024/04/13 01:22:49;;;;;;;;;;;;;;;13.84;83.60;102623.15;106911;1276;22460;-53
2024/04/13 01:25:16;;;;;;;;;;;;;;;13.83;83.59;102624.95;107023;1271;22538;-50
2024/04/13 01:27:43;;;;;;;;;;;;;;;13.81;83.54;102620.76;107142;1276;22507;-52
2024/04/13 01:30:13;;;;;;;;;;;;;;;13.78;83.55;102622.30;107077;1276;22632;-51
2024/04/13 01:32:40;;;;;;;;;;;;;;;13.75;83.49;102628.11;106845;1269;25339;-52
2024/04/13 01:35:11;;;;;;;;;;;;;;;13.72;83.51;102621.99;106888;1269;24164;-52
2024/04/13 01:37:39;;;;;;;;;;;;;;;13.71;83.55;102619.77;106965;1276;24122;-54
2024/04/13 01:40:07;;;;;;;;;;;;;;;13.70;83.65;102618.73;106976;1276;22412;-52
2024/04/13 01:42:35;;;;;;;;;;;;;;;13.69;83.69;102620.35;107187;1276;24164;-52
2024/04/13 01:45:02;;;;;;;;;;;;;;;13.70;83.73;102622.47;106965;1274;22443;-50
2024/04/13 01:47:28;;;;;;;;;;;;;;;13.70;83.70;102625.45;106864;1270;22910;-50
2024/04/13 01:49:55;;;;;;;;;;;;;;;13.70;83.59;102625.30;106848;1275;23927;-48
2024/04/13 01:52:23;;;;;;;;;;;;;;;13.67;83.52;102630.39;106993;1276;25220;-47
2024/04/13 01:54:49;;;;;;;;;;;;;;;13.64;83.58;102625.53;106861;1269;22501;-50
2024/04/13 01:57:16;;;;;;;;;;;;;;;13.61;83.66;102624.05;106862;1273;24199;-51
2024/04/13 01:59:43;;;;;;;;;;;;;;;13.59;83.51;102623.10;106925;1276;22597;-50
2024/04/13 02:02:10;;;;;;;;;;;;;;;13.57;83.61;102624.77;106819;1274;24323;-51
2024/04/13 02:04:37;;;;;;;;;;;;;;;13.56;83.62;102618.58;106815;1276;25252;-50
2024/04/13 02:07:04;;;;;;;;;;;;;;;13.55;83.66;102615.95;106538;1273;522782;-49
2024/04/13 02:09:33;;;;;;;;;;;;;;;13.54;83.71;102613.52;106998;1276;25392;-52
2024/04/13 02:12:00;;;;;;;;;;;;;;;13.52;83.75;102610.39;106997;1270;22623;-49
2024/04/13 02:14:27;;;;;;;;;;;;;;;13.50;83.87;102607.80;106907;1271;22420;-52
2024/04/13 02:16:54;;;;;;;;;;;;;;;13.48;83.77;102613.41;106850;1276;22491;-51
2024/04/13 02:19:21;;;;;;;;;;;;;;;13.45;83.69;102614.78;106837;1270;22639;-51
2024/04/13 02:21:48;;;;;;;;;;;;;;;13.42;83.84;102617.57;106875;1269;24110;-48
2024/04/13 02:24:16;;;;;;;;;;;;;;;13.38;83.73;102620.57;106990;1270;22846;-53
2024/04/13 02:26:43;;;;;;;;;;;;;;;13.35;83.77;102624.58;106961;1270;25195;-49
2024/04/13 02:29:10;;;;;;;;;;;;;;;13.32;83.71;102623.42;106857;1276;24192;-49
2024/04/13 02:31:37;;;;;;;;;;;;;;;13.30;83.74;102620.33;107056;1276;25338;-50
2024/04/13 02:34:04;;;;;;;;;;;;;;;13.28;83.77;102617.38;106855;1270;22675;-51
2024/04/13 02:36:31;;;;;;;;;;;;;;;13.26;83.61;102619.23;106853;1270;24231;-49
2024/04/13 02:38:58;;;;;;;;;;;;;;;13.23;83.77;102617.56;107020;1276;25378;-51
2024/04/13 02:41:24;;;;;;;;;;;;;;;13.19;83.72;102619.85;107145;1276;25990;-53
2024/04/13 02:43:52;;;;;;;;;;;;;;;13.15;83.76;102617.67;106966;1273;22638;-48
2024/04/13 02:46:21;;;;;;;;;;;;;;;13.12;83.74;102618.00;107040;1273;22425;-51
2024/04/13 02:48:48;;;;;;;;;;;;;;;13.08;83.86;102617.08;106993;1276;23899;-51
2024/04/13 02:51:16;;;;;;;;;;;;;;;13.06;83.88;102616.44;106936;1271;24122;-48
2024/04/13 02:53:44;;;;;;;;;;;;;;;13.04;84.01;102612.46;106912;1276;22584;-51
2024/04/13 02:56:11;;;;;;;;;;;;;;;13.02;84.19;102611.27;106844;1270;22451;-51
2024/04/13 02:58:38;;;;;;;;;;;;;;;12.99;84.33;102613.18;106860;1270;22647;-51
2024/04/13 03:01:05;;;;;;;;;;;;;;;12.97;84.28;102618.03;106921;1276;24171;-53
2024/04/13 03:03:32;;;;;;;;;;;;;;;12.93;84.38;102617.29;106985;1270;25204;-49
2024/04/13 03:06:03;;;;;;;;;;;;;;;12.90;84.58;102618.67;107207;1270;23138;-48
2024/04/13 03:08:33;;;;;;;;;;;;;;;12.86;84.41;102621.10;107020;1275;25199;-49
2024/04/13 03:11:01;;;;;;;;;;;;;;;12.83;84.49;102622.65;106852;1270;25344;-51
2024/04/13 03:13:28;;;;;;;;;;;;;;;12.81;84.60;102619.55;106910;1268;22536;-50
2024/04/13 03:16:02;;;;;;;;;;;;;;;12.79;84.70;102617.66;106834;1276;22606;-47
2024/04/13 03:18:31;;;;;;;;;;;;;;;12.77;84.77;102612.22;106886;1276;24179;-48
2024/04/13 03:20:59;;;;;;;;;;;;;;;12.75;84.96;102614.77;107078;1276;22439;-51
2024/04/13 03:23:28;;;;;;;;;;;;;;;12.74;85.22;102610.55;106995;1276;24153;-51
2024/04/13 03:25:55;;;;;;;;;;;;;;;12.72;85.36;102612.23;106962;1270;25265;-44
2024/04/13 03:28:23;;;;;;;;;;;;;;;12.69;85.40;102609.33;106933;1276;22668;-46
2024/04/13 03:30:50;;;;;;;;;;;;;;;12.66;85.25;102608.91;107161;1273;25353;-43
2024/04/13 03:33:17;;;;;;;;;;;;;;;12.64;85.37;102607.23;106737;1273;22760;-44
2024/04/13 03:35:47;;;;;;;;;;;;;;;12.62;85.32;102608.18;107068;1276;25394;-48
2024/04/13 03:38:14;;;;;;;;;;;;;;;12.60;85.39;102607.38;107004;1274;25373;-45
2024/04/13 03:40:41;;;;;;;;;;;;;;;12.59;85.61;102610.23;107109;1276;25185;-44
2024/04/13 03:43:08;;;;;;;;;;;;;;;12.58;85.79;102610.11;106850;1276;24053;-43
2024/04/13 03:45:34;;;;;;;;;;;;;;;12.55;85.89;102609.31;106888;1276;23891;-45
2024/04/13 03:48:01;;;;;;;;;;;;;;;12.52;85.90;102604.99;107039;1270;22452;-44
2024/04/13 03:50:28;;;;;;;;;;;;;;;12.50;86.05;102607.91;107148;1276;24107;-45
2024/04/13 03:52:55;;;;;;;;;;;;;;;12.47;85.94;102609.96;106972;1269;22505;-45
2024/04/13 03:55:22;;;;;;;;;;;;;;;12.44;86.03;102610.79;107000;1276;22491;-46
2024/04/13 03:57:49;;;;;;;;;;;;;;;12.41;86.09;102607.86;106845;1276;22594;-45
2024/04/13 04:00:16;;;;;;;;;;;;;;;12.41;86.05;102608.23;106914;1269;22531;-46
2024/04/13 04:02:43;;;;;;;;;;;;;;;12.39;85.96;102607.08;106898;1276;22791;-46
2024/04/13 04:05:10;;;;;;;;;;;;;;;12.38;85.96;102606.58;106898;1270;22518;-47
2024/04/13 04:07:38;;;;;;;;;;;;;;;12.35;85.91;102608.42;107046;1273;22511;-46
2024/04/13 04:10:05;;;;;;;;;;;;;;;12.32;85.89;102604.46;107111;1276;22568;-45
2024/04/13 04:12:32;;;;;;;;;;;;;;;12.29;85.85;102600.69;107231;1276;22495;-46
2024/04/13 04:14:59;;;;;;;;;;;;;;;12.25;85.88;102603.64;106937;1276;22516;-46
2024/04/13 04:17:26;;;;;;;;;;;;;;;12.21;86.11;102601.65;107005;1268;25862;-48
2024/04/13 04:19:53;;;;;;;;;;;;;;;12.19;86.22;102596.42;107221;1274;23851;-46
2024/04/13 04:22:19;;;;;;;;;;;;;;;12.17;86.23;102599.16;107232;1274;24154;-47
2024/04/13 04:24:46;;;;;;;;;;;;;;;12.15;86.34;102596.75;106952;1276;25398;-46
2024/04/13 04:27:13;;;;;;;;;;;;;;;12.13;86.46;102594.33;106856;1269;25166;-47
2024/04/13 04:29:40;;;;;;;;;;;;;;;12.12;86.56;102591.17;106931;1270;22642;-48
2024/04/13 04:32:07;;;;;;;;;;;;;;;12.09;86.64;102596.61;107019;1276;25184;-49
2024/04/13 04:34:34;;;;;;;;;;;;;;;12.06;86.56;102594.94;107141;1276;22847;-49
2024/04/13 04:37:01;;;;;;;;;;;;;;;12.03;86.60;102602.48;107073;1269;22649;-49
2024/04/13 04:39:28;;;;;;;;;;;;;;;12.00;86.72;102603.11;107109;1276;22804;-48
2024/04/13 04:41:55;;;;;;;;;;;;;;;11.98;86.78;102597.15;107068;1276;22849;-47
2024/04/13 04:44:22;;;;;;;;;;;;;;;11.96;86.98;102598.81;106997;1271;25343;-47
2024/04/13 04:46:49;;;;;;;;;;;;;;;11.95;87.01;102599.38;106889;1276;22803;-47
2024/04/13 04:49:16;;;;;;;;;;;;;;;11.94;87.10;102598.35;106941;1276;25375;-45
2024/04/13 04:51:42;;;;;;;;;;;;;;;11.92;87.23;102601.41;106737;1273;24205;-45
2024/04/13 04:54:09;;;;;;;;;;;;;;;11.89;87.29;102593.73;106859;1273;22507;-44
2024/04/13 04:56:37;;;;;;;;;;;;;;;11.87;87.44;102592.01;106931;1276;22461;-44
2024/04/13 04:59:04;;;;;;;;;;;;;;;11.85;87.92;102594.17;106819;1270;25916;-43
2024/04/13 05:01:31;;;;;;;;;;;;;;;11.86;88.19;102593.10;107011;1271;22492;-44
2024/04/13 05:03:58;;;;;;;;;;;;;;;11.86;88.39;102597.70;107096;1276;22533;-46
2024/04/13 05:06:25;;;;;;;;;;;;;;;11.87;88.80;102599.63;107136;1276;22948;-48
2024/04/13 05:08:52;;;;;;;;;;;;;;;11.90;89.35;102603.43;107021;1270;22877;-44
2024/04/13 05:11:19;;;;;;;;;;;;;;;11.92;89.33;102606.73;107076;1270;24165;-46
2024/04/13 05:13:46;;;;;;;;;;;;;;;11.94;89.48;102606.86;106995;1276;22540;-45
2024/04/13 05:16:12;;;;;;;;;;;;;;;11.95;89.42;102605.23;106857;1270;22489;-46
2024/04/13 05:18:39;;;;;;;;;;;;;;;11.95;89.23;102604.17;106890;1261;23474;-45
2024/04/13 05:21:06;;;;;;;;;;;;;;;11.93;89.28;102602.27;107002;1269;25342;-45
2024/04/13 05:23:33;;;;;;;;;;;;;;;11.92;89.28;102596.09;106883;1269;24225;-47
2024/04/13 05:26:00;;;;;;;;;;;;;;;11.93;89.52;102596.81;106909;1270;25214;-45
2024/04/13 05:28:27;;;;;;;;;;;;;;;11.93;89.64;102597.86;106884;1276;24266;-45
2024/04/13 05:30:57;;;;;;;;;;;;;;;11.95;89.73;102593.54;107152;1270;22471;-50
2024/04/13 05:33:24;;;;;;;;;;;;;;;11.98;90.00;102592.39;107062;1276;22745;-44
2024/04/13 05:35:51;;;;;;;;;;;;;;;11.98;89.92;102592.20;106969;1276;22454;-44
2024/04/13 05:38:18;;;;;;;;;;;;;;;11.98;90.42;102591.12;106954;1276;24222;-46
2024/04/13 05:40:45;;;;;;;;;;;;;;;11.99;90.66;102596.59;106996;1273;25265;-45
2024/04/13 05:43:12;;;;;;;;;;;;;;;12.00;90.77;102598.86;106853;1269;22499;-45
2024/04/13 05:45:39;;;;;;;;;;;;;;;12.01;90.68;102596.52;106989;1269;25392;-46
2024/04/13 05:48:06;;;;;;;;;;;;;;;12.03;91.13;102594.69;107043;1273;25297;-46
2024/04/13 05:50:33;;;;;;;;;;;;;;;12.06;91.41;102591.04;106951;1276;24184;-45
2024/04/13 05:53:00;;;;;;;;;;;;;;;12.09;91.45;102596.41;107036;1270;23478;-45
2024/04/13 05:55:27;;;;;;;;;;;;;;;12.13;91.54;102601.61;107008;1270;24140;-48
2024/04/13 05:57:54;;;;;;;;;;;;;;;12.17;91.92;102598.09;107019;1276;22547;-46
2024/04/13 06:00:21;;;;;;;;;;;;;;;12.20;92.16;102600.64;106875;1276;23884;-47
2024/04/13 06:02:51;;;;;;;;;;;;;;;12.24;92.49;102599.09;107012;1272;22451;-44
2024/04/13 06:05:19;;;;;;;;;;;;;;;12.28;92.57;102598.77;107102;1270;22491;-46
2024/04/13 06:07:46;;;;;;;;;;;;;;;12.31;92.64;102597.75;106987;1276;23884;-45
2024/04/13 06:10:13;;;;;;;;;;;;;;;12.36;92.83;102595.30;106936;1269;22544;-45
2024/04/13 06:12:40;;;;;;;;;;;;;;;12.40;92.88;102595.65;106931;1269;22600;-45
2024/04/13 06:15:07;;;;;;;;;;;;;;;12.48;93.11;102597.89;107062;1269;25925;-45
2024/04/13 06:17:33;;;;;;;;;;;;;;;12.53;93.14;102596.61;106891;1272;22446;-49
2024/04/13 06:20:00;;;;;;;;;;;;;;;12.60;93.27;102597.94;106834;1269;22440;-49
2024/04/13 06:22:27;;;;;;;;;;;;;;;12.68;93.40;102596.92;106845;1276;22429;-47
2024/04/13 06:24:54;;;;;;;;;;;;;;;12.78;93.40;102596.40;107117;1276;22609;-49
2024/04/13 06:27:21;;;;;;;;;;;;;;;12.84;93.15;102596.17;106998;1269;22494;-50
2024/04/13 06:29:48;;;;;;;;;;;;;;;12.87;93.12;102594.98;106924;1276;22524;-49
2024/04/13 06:32:15;;;;;;;;;;;;;;;12.91;93.02;102600.15;107119;1276;24698;-44
2024/04/13 06:34:42;;;;;;;;;;;;;;;12.96;93.23;102599.27;107314;1272;23431;-45
2024/04/13 06:37:11;;;;;;;;;;;;;;;12.99;93.08;102594.19;107096;1269;22539;-45
2024/04/13 06:39:38;;;;;;;;;;;;;;;13.06;93.34;102596.75;107149;1269;25936;-44
2024/04/13 06:42:05;;;;;;;;;;;;;;;13.13;93.48;102601.98;106878;1276;22429;-45
2024/04/13 06:44:32;;;;;;;;;;;;;;;13.20;93.63;102595.13;106866;1270;22540;-45
2024/04/13 06:46:59;;;;;;;;;;;;;;;13.27;93.44;102593.98;106898;1276;22455;-45
2024/04/13 06:49:26;;;;;;;;;;;;;;;13.36;93.58;102589.04;106889;1269;25473;-43
2024/04/13 06:51:53;;;;;;;;;;;;;;;13.45;93.74;102585.48;106972;1276;24618;-44
2024/04/13 06:54:20;;;;;;;;;;;;;;;13.54;93.65;102581.00;106978;1272;25389;-45
2024/04/13 06:56:47;;;;;;;;;;;;;;;13.62;93.38;102575.35;106925;1276;22429;-46
2024/04/13 06:59:17;;;;;;;;;;;;;;;13.68;93.15;102573.50;106821;1276;22634;-47
2024/04/13 07:01:44;;;;;;;;;;;;;;;13.74;92.97;102575.73;106838;1276;22456;-45
2024/04/13 07:04:11;;;;;;;;;;;;;;;13.80;92.95;102575.67;106839;1276;24174;-44
2024/04/13 07:06:38;;;;;;;;;;;;;;;13.84;92.68;102574.45;106894;1276;24170;-43
2024/04/13 07:09:05;;;;;;;;;;;;;;;13.90;92.63;102568.13;106900;1275;22496;-50
2024/04/13 07:11:32;;;;;;;;;;;;;;;13.96;92.36;102560.92;107074;1276;22514;-46
2024/04/13 07:13:59;;;;;;;;;;;;;;;14.05;92.52;102567.13;107088;1276;22507;-48
2024/04/13 07:16:26;;;;;;;;;;;;;;;14.13;92.52;102565.91;106968;1276;25284;-45
2024/04/13 07:18:53;;;;;;;;;;;;;;;14.23;92.18;102563.14;107002;1276;25210;-44
2024/04/13 07:21:20;;;;;;;;;;;;;;;14.33;91.87;102564.66;107161;1276;24059;-46
2024/04/13 07:23:48;;;;;;;;;;;;;;;14.42;91.83;102562.51;106826;1276;22550;-44
2024/04/13 07:26:14;;;;;;;;;;;;;;;14.50;91.82;102556.78;106853;1276;22432;-44
2024/04/13 07:28:41;;;;;;;;;;;;;;;14.59;91.43;102559.08;107008;1276;23171;-46
2024/04/13 07:31:08;;;;;;;;;;;;;;;14.66;91.16;102558.38;107032;1276;25332;-44
2024/04/13 07:33:35;;;;;;;;;;;;;;;14.75;91.07;102549.44;106972;1273;22562;-45
2024/04/13 07:36:03;;;;;;;;;;;;;;;14.84;90.63;102547.03;106948;1275;22456;-44
2024/04/13 07:38:30;;;;;;;;;;;;;;;14.93;90.02;102542.55;107036;1276;23101;-45
2024/04/13 07:40:57;;;;;;;;;;;;;;;15.01;89.85;102539.30;106916;1276;25367;-44
2024/04/13 07:43:24;;;;;;;;;;;;;;;15.10;89.40;102534.56;106939;1276;24189;-43
2024/04/13 07:45:51;;;;;;;;;;;;;;;15.19;88.22;102530.58;107046;1276;24281;-45
2024/04/13 07:48:18;;;;;;;;;;;;;;;15.30;88.11;102538.08;107027;1276;22449;-45
2024/04/13 07:50:45;;;;;;;;;;;;;;;15.43;88.25;102536.73;107087;1276;22623;-46
2024/04/13 07:53:12;;;;;;;;;;;;;;;15.55;88.22;102537.89;106802;1276;22630;-44
2024/04/13 07:55:39;;;;;;;;;;;;;;;15.70;87.75;102535.89;106914;1272;24147;-44
2024/04/13 07:58:06;;;;;;;;;;;;;;;15.84;87.44;102534.86;106859;1276;25395;-45
2024/04/13 08:00:33;;;;;;;;;;;;;;;15.96;86.47;102535.81;107034;1276;22768;-45
2024/04/13 08:03:01;;;;;;;;;;;;;;;16.08;85.89;102529.67;107138;1276;25223;-45
2024/04/13 08:05:28;;;;;;;;;;;;;;;16.21;85.66;102530.56;107325;1272;24866;-47
2024/04/13 08:07:55;;;;;;;;;;;;;;;16.35;85.14;102531.61;107035;1276;22432;-44
2024/04/13 08:10:22;;;;;;;;;;;;;;;16.47;84.41;102524.55;106809;1275;22530;-44
2024/04/13 08:12:49;;;;;;;;;;;;;;;16.58;83.86;102518.05;106889;1274;22433;-46
2024/04/13 08:15:16;;;;;;;;;;;;;;;16.69;83.45;102515.98;107006;1276;25242;-45
2024/04/13 08:17:43;;;;;;;;;;;;;;;16.81;83.14;102512.16;106896;1276;22498;-45
2024/04/13 08:20:10;;;;;;;;;;;;;;;16.91;82.71;102514.25;107066;1276;22505;-49
2024/04/13 08:22:39;;;;;;;;;;;;;;;17.01;82.34;102516.89;107018;1276;22443;-48
2024/04/13 08:25:06;;;;;;;;;;;;;;;17.11;82.61;102514.38;106949;1272;22696;-49
2024/04/13 08:27:35;;;;;;;;;;;;;;;17.23;82.17;102514.95;107045;1276;22682;-49
2024/04/13 08:30:02;;;;;;;;;;;;;;;17.34;81.45;102518.05;106967;1276;24282;-45
2024/04/13 08:32:29;;;;;;;;;;;;;;;17.43;80.43;102521.83;106939;1273;22555;-46
2024/04/13 08:34:56;;;;;;;;;;;;;;;17.52;80.11;102521.29;107019;1276;22547;-46
2024/04/13 08:37:23;;;;;;;;;;;;;;;17.62;79.64;102517.27;106833;1276;22510;-45
2024/04/13 08:39:49;;;;;;;;;;;;;;;17.72;79.20;102514.72;106798;1273;22502;-46
2024/04/13 08:42:20;;;;;;;;;;;;;;;17.84;78.99;102512.24;106790;1276;22531;-45
2024/04/13 08:44:50;;;;;;;;;;;;;;;17.98;77.85;102512.27;106986;1275;22433;-47
2024/04/13 08:47:17;;;;;;;;;;;;;;;18.10;77.47;102510.46;106871;1276;25210;-46
2024/04/13 08:49:44;;;;;;;;;;;;;;;18.22;77.33;102504.19;106879;1276;24359;-44
2024/04/13 08:52:11;;;;;;;;;;;;;;;18.34;76.73;102500.56;106836;1273;22494;-45
2024/04/13 08:54:38;;;;;;;;;;;;;;;18.43;75.97;102494.97;106877;1276;22486;-46
2024/04/13 08:57:06;;;;;;;;;;;;;;;18.53;75.67;102493.66;106871;1276;22592;-46
2024/04/13 08:59:33;;;;;;;;;;;;;;;18.63;75.34;102490.86;107065;1274;22429;-48
2024/04/13 09:02:01;;;;;;;;;;;;;;;18.73;74.87;102491.64;107132;1276;23929;-46
2024/04/13 09:04:31;;;;;;;;;;;;;;;18.83;74.96;102494.05;107006;1276;24199;-46
2024/04/13 09:06:58;;;;;;;;;;;;;;;18.95;74.69;102489.00;106984;1276;25195;-46
2024/04/13 09:09:25;;;;;;;;;;;;;;;19.05;73.86;102484.36;106954;1276;25401;-45
2024/04/13 09:11:52;;;;;;;;;;;;;;;19.15;73.57;102482.44;107094;1276;22495;-44
2024/04/13 09:14:19;;;;;;;;;;;;;;;19.25;73.07;102474.42;107077;1276;26000;-46
2024/04/13 09:16:45;;;;;;;;;;;;;;;19.35;72.95;102470.21;106892;1276;22641;-46
2024/04/13 09:19:12;;;;;;;;;;;;;;;19.45;72.65;102464.88;106847;1275;24252;-44
2024/04/13 09:21:40;;;;;;;;;;;;;;;19.55;72.05;102462.59;106912;1276;24378;-46
2024/04/13 09:24:07;;;;;;;;;;;;;;;19.64;71.57;102459.63;107050;1270;25850;-45
2024/04/13 09:26:44;;;;;;;;;;;;;;;19.75;71.64;102459.20;107038;1270;22474;-46
2024/04/13 09:29:13;;;;;;;;;;;;;;;19.88;71.20;102458.50;107064;1269;23730;-46
2024/04/13 09:31:40;;;;;;;;;;;;;;;19.97;70.56;102454.98;106972;1253;22668;-46
2024/04/13 09:34:07;;;;;;;;;;;;;;;20.08;71.04;102455.32;106815;1270;25240;-46
2024/04/13 09:36:34;;;;;;;;;;;;;;;20.23;71.33;102455.70;106864;1269;22558;-47
2024/04/13 09:39:04;;;;;;;;;;;;;;;20.37;70.56;102451.64;106906;1269;24164;-50
2024/04/13 09:41:31;;;;;;;;;;;;;;;20.46;69.36;102449.14;107060;1269;22496;-45
2024/04/13 09:43:58;;;;;;;;;;;;;;;20.55;69.23;102438.46;106963;1269;22916;-47
2024/04/13 09:46:25;;;;;;;;;;;;;;;20.66;69.27;102435.14;107008;1269;25140;-49
2024/04/13 09:48:54;;;;;;;;;;;;;;;20.77;69.14;102429.50;106896;1269;22552;-46
2024/04/13 09:51:24;;;;;;;;;;;;;;;20.87;68.52;102424.02;106860;1269;22499;-46
2024/04/13 09:53:51;;;;;;;;;;;;;;;20.97;67.93;102421.37;106880;1269;25270;-45
2024/04/13 09:56:18;;;;;;;;;;;;;;;21.05;67.52;102417.17;107017;1269;22735;-47
2024/04/13 09:58:45;;;;;;;;;;;;;;;21.13;66.93;102414.52;107074;1272;24160;-50
2024/04/13 10:01:12;;;;;;;;;;;;;;;21.21;66.80;102413.91;106749;1275;24172;-46
2024/04/13 10:03:40;;;;;;;;;;;;;;;21.32;66.67;102411.13;107123;1269;22540;-50
2024/04/13 10:06:09;;;;;;;;;;;;;;;21.41;65.99;102408.79;106931;1267;25382;-51
2024/04/13 10:08:38;;;;;;;;;;;;;;;21.53;66.19;102409.52;107076;1272;22675;-49
2024/04/13 10:11:05;;;;;;;;;;;;;;;21.68;66.28;102407.81;106956;1269;22507;-51
2024/04/13 10:13:33;;;;;;;;;;;;;;;21.81;65.67;102407.33;107066;1263;24219;-52
2024/04/13 10:16:00;;;;;;;;;;;;;;;21.91;65.17;102407.42;106840;1276;22450;-52
2024/04/13 10:18:28;;;;;;;;;;;;;;;22.02;65.33;102405.27;107144;1269;22515;-51
2024/04/13 10:21:05;;;;;;;;;;;;;;;22.13;64.46;102396.41;107337;1269;24522;-52
2024/04/13 10:23:39;;;;;;;;;;;;;;;22.23;63.61;102384.70;106971;1269;24987;-51
2024/04/13 10:26:06;;;;;;;;;;;;;;;22.33;63.43;102381.38;106905;1269;22484;-47
2024/04/13 10:28:34;;;;;;;;;;;;;;;22.43;62.95;102381.08;106843;1272;23877;-47
2024/04/13 10:31:03;;;;;;;;;;;;;;;22.53;62.83;102376.48;106919;1269;23877;-48
2024/04/13 10:33:30;;;;;;;;;;;;;;;22.63;62.68;102370.55;107047;1275;22442;-49
2024/04/13 10:36:00;;;;;;;;;;;;;;;22.76;62.38;102368.38;107289;1270;22541;-47
2024/04/13 10:38:28;;;;;;;;;;;;;;;22.90;61.91;102367.60;106791;1270;22665;-48
2024/04/13 10:40:56;;;;;;;;;;;;;;;23.05;61.49;102361.52;106933;1275;22431;-45
2024/04/13 10:43:23;;;;;;;;;;;;;;;23.17;60.61;102356.25;106904;1276;22523;-49
2024/04/13 10:45:57;;;;;;;;;;;;;;;23.29;59.46;102353.48;106999;1270;22768;-46
2024/04/13 10:48:25;;;;;;;;;;;;;;;23.38;58.87;102347.83;106985;1270;25335;-46
2024/04/13 10:50:56;;;;;;;;;;;;;;;23.43;58.00;102344.69;107277;1276;22532;-48
2024/04/13 10:53:23;;;;;;;;;;;;;;;23.52;58.77;102343.73;107100;1272;25313;-48
2024/04/13 10:55:50;;;;;;;;;;;;;;;23.65;58.59;102336.25;107100;1270;24210;-48
2024/04/13 10:58:17;;;;;;;;;;;;;;;23.74;57.30;102332.39;106998;1275;25230;-46
2024/04/13 11:00:45;;;;;;;;;;;;;;;23.83;57.32;102325.45;107005;1276;22876;-49
2024/04/13 11:03:12;;;;;;;;;;;;;;;23.97;57.18;102324.23;106919;1270;25389;-44
2024/04/13 11:05:39;;;;;;;;;;;;;;;24.06;55.90;102326.63;107013;1275;22639;-45
2024/04/13 11:08:08;;;;;;;;;;;;;;;24.14;55.37;102317.35;107025;1269;22528;-45
2024/04/13 11:10:35;;;;;;;;;;;;;;;24.23;55.17;102309.73;107085;1269;24033;-49
2024/04/13 11:13:02;;;;;;;;;;;;;;;24.36;54.91;102304.17;107129;1269;23858;-49
2024/04/13 11:15:30;;;;;;;;;;;;;;;24.50;54.78;102306.00;107032;1269;22794;-49
2024/04/13 11:17:57;;;;;;;;;;;;;;;24.60;53.82;102306.70;107004;1276;25240;-48
2024/04/13 11:20:25;;;;;;;;;;;;;;;24.73;53.84;102296.16;106957;1269;22866;-48
2024/04/13 11:22:51;;;;;;;;;;;;;;;24.89;53.66;102290.23;106983;1272;22933;-47
2024/04/13 11:25:19;;;;;;;;;;;;;;;25.05;53.37;102292.70;106816;1272;22467;-49
2024/04/13 11:27:48;;;;;;;;;;;;;;;25.19;52.61;102290.50;107207;1269;23774;-57
2024/04/13 11:30:15;;;;;;;;;;;;;;;25.30;51.89;102279.19;107094;1269;22544;-56
2024/04/13 11:32:42;;;;;;;;;;;;;;;25.40;51.88;102268.91;107016;1272;22485;-57
2024/04/13 11:35:13;;;;;;;;;;;;;;;25.52;51.12;102261.80;106863;1275;22663;-56
2024/04/13 11:37:40;;;;;;;;;;;;;;;25.65;51.08;102259.23;106932;1269;24294;-56
2024/04/13 11:40:12;;;;;;;;;;;;;;;25.74;49.59;102250.59;106959;1269;22454;-56
2024/04/13 11:42:40;;;;;;;;;;;;;;;25.78;49.53;102248.16;106989;1269;25335;-57
2024/04/13 11:45:15;;;;;;;;;;;;;;;25.86;49.27;102245.02;107013;1269;22554;-57
2024/04/13 11:47:43;;;;;;;;;;;;;;;25.91;48.94;102246.39;106954;1269;22538;-56
2024/04/13 11:50:10;;;;;;;;;;;;;;;25.97;48.93;102243.81;106978;1260;23803;-56
2024/04/13 11:52:37;;;;;;;;;;;;;;;26.06;49.00;102235.10;106797;1276;22446;-57
2024/04/13 11:55:04;;;;;;;;;;;;;;;26.15;48.77;102229.34;106871;1276;25306;-56
2024/04/13 11:57:31;;;;;;;;;;;;;;;26.25;48.43;102226.89;106979;1276;22842;-57
2024/04/13 11:59:58;;;;;;;;;;;;;;;26.34;48.09;102223.38;107124;1253;22865;-56
2024/04/13 12:02:25;;;;;;;;;;;;;;;26.40;47.21;102210.60;107057;1268;25676;-57
2024/04/13 12:04:52;;;;;;;;;;;;;;;26.43;46.93;102210.31;107152;1272;23771;-56
2024/04/13 12:07:20;;;;;;;;;;;;;;;26.51;47.30;102207.00;107049;1270;22440;-56
2024/04/13 12:09:46;;;;;;;;;;;;;;;26.58;46.81;102199.75;107005;1269;24168;-56
2024/04/13 12:12:13;;;;;;;;;;;;;;;26.63;45.50;102196.52;106992;1260;22581;-56
2024/04/13 12:14:40;;;;;;;;;;;;;;;26.62;44.96;102194.09;106974;1272;25220;-56
2024/04/13 12:17:14;;;;;;;;;;;;;;;26.66;44.86;102191.80;106861;1276;24228;-55
2024/04/13 12:19:43;;;;;;;;;;;;;;;26.76;44.89;102191.48;106909;1272;22485;-56
2024/04/13 12:22:10;;;;;;;;;;;;;;;26.92;45.27;102184.44;106930;1276;22465;-56
2024/04/13 12:24:37;;;;;;;;;;;;;;;27.10;44.97;102181.08;106868;1276;22461;-56
2024/04/13 12:27:05;;;;;;;;;;;;;;;27.26;44.61;102179.95;106901;1276;22667;-56